createdAt,value
2022-11-21T00:00:37.925Z,97627.13
2022-11-21T00:03:05.781Z,97629.16
2022-11-21T00:05:32.769Z,97615.38
2022-11-21T00:07:59.648Z,97620.59
2022-11-21T00:10:26.593Z,97625.03
2022-11-21T00:12:54.528Z,97619.31
2022-11-21T00:15:21.225Z,97620.59
2022-11-21T00:17:47.721Z,97630.69
2022-11-21T00:20:16.406Z,97612.19
2022-11-21T00:22:42.995Z,97611.53
2022-11-21T00:25:10.323Z,97616.91
2022-11-21T00:27:36.874Z,97619.75
2022-11-21T00:30:04.470Z,97618.16
2022-11-21T00:32:31.542Z,97627.38
2022-11-21T00:34:58.041Z,97620.06
2022-11-21T00:37:26.021Z,97629.25
2022-11-21T00:39:52.592Z,97624.34
2022-11-21T00:42:19.315Z,97635.13
2022-11-21T00:44:45.830Z,97635.91
2022-11-21T00:47:12.473Z,97633.22
2022-11-21T00:49:39.086Z,97633.69
2022-11-21T00:52:05.813Z,97632.91
2022-11-21T00:54:33.695Z,97636.38
2022-11-21T00:57:00.254Z,97638.72
2022-11-21T00:59:26.807Z,97635.59
2022-11-21T01:01:53.385Z,97639.41
2022-11-21T01:04:20.104Z,97641.31
2022-11-21T01:06:46.593Z,97637.03
2022-11-21T01:09:13.367Z,97637.50
2022-11-21T01:11:41.219Z,97647.81
2022-11-21T01:14:07.748Z,97650.03
2022-11-21T01:16:34.791Z,97645.44
2022-11-21T01:19:01.411Z,97656.19
2022-11-21T01:21:29.447Z,97654.13
2022-11-21T01:23:58.411Z,97659.88
2022-11-21T01:26:26.947Z,97664.47
2022-11-21T01:28:55.459Z,97669.06
2022-11-21T01:31:23.647Z,97670.03
2022-11-21T01:33:50.337Z,97675.59
2022-11-21T01:36:18.801Z,97676.53
2022-11-21T01:38:47.585Z,97683.69
2022-11-21T01:41:16.677Z,97686.22
2022-11-21T01:43:43.298Z,97680.69
2022-11-21T01:46:14.270Z,97685.78
2022-11-21T01:48:46.076Z,97685.97
2022-11-21T01:51:16.755Z,97691.19
2022-11-21T01:53:48.749Z,97706.06
2022-11-21T01:56:15.642Z,97701.03
2022-11-21T01:58:45.029Z,97709.41
2022-11-21T02:01:13.393Z,97707.97
2022-11-21T02:03:42.288Z,97706.72
2022-11-21T02:06:09.891Z,97717.16
2022-11-21T02:08:37.259Z,97728.19
2022-11-21T02:11:12.193Z,97729.47
2022-11-21T02:13:38.779Z,97732.31
2022-11-21T02:16:07.197Z,97733.56
2022-11-21T02:18:35.444Z,97744.78
2022-11-21T02:21:09.045Z,97747.28
2022-11-21T02:23:41.721Z,97751.22
2022-11-21T02:26:10.707Z,97757.22
2022-11-21T02:28:37.392Z,97747.91
2022-11-21T02:31:04.153Z,97752.00
2022-11-21T02:33:30.661Z,97751.66
2022-11-21T02:35:58.297Z,97754.66
2022-11-21T02:38:28.938Z,97760.31
2022-11-21T02:41:03.639Z,97766.00
2022-11-21T02:43:35.578Z,97768.03
2022-11-21T02:46:02.160Z,97775.50
2022-11-21T02:48:28.670Z,97778.97
2022-11-21T02:50:55.311Z,97779.09
2022-11-21T02:53:21.838Z,97782.22
2022-11-21T02:55:48.428Z,97776.06
2022-11-21T02:58:15.070Z,97789.31
2022-11-21T03:00:43.347Z,97791.84
2022-11-21T03:03:09.906Z,97796.22
2022-11-21T03:05:37.459Z,97803.63
2022-11-21T03:08:04.986Z,97799.03
2022-11-21T03:10:31.918Z,97798.25
2022-11-21T03:12:58.582Z,97806.13
2022-11-21T03:15:25.171Z,97818.59
2022-11-21T03:17:53.032Z,97817.59
2022-11-21T03:20:19.562Z,97813.31
2022-11-21T03:22:46.197Z,97819.44
2022-11-21T03:25:12.722Z,97821.91
2022-11-21T03:27:39.301Z,97835.97
2022-11-21T03:30:07.346Z,97836.25
2022-11-21T03:32:33.916Z,97837.16
2022-11-21T03:35:01.774Z,97834.81
2022-11-21T03:37:28.347Z,97843.16
2022-11-21T03:39:55.010Z,97837.88
2022-11-21T03:42:21.489Z,97844.19
2022-11-21T03:44:50.917Z,97842.03
2022-11-21T03:47:17.407Z,97845.72
2022-11-21T03:49:43.962Z,97846.94
2022-11-21T03:52:11.797Z,97852.22
2022-11-21T03:54:38.362Z,97854.47
2022-11-21T03:57:04.869Z,97856.50
2022-11-21T03:59:31.377Z,97855.81
2022-11-21T04:01:58.137Z,97852.63
2022-11-21T04:04:24.737Z,97855.09
2022-11-21T04:06:51.351Z,97858.88
2022-11-21T04:09:19.198Z,97859.19
2022-11-21T04:11:45.849Z,97856.81
2022-11-21T04:14:12.312Z,97854.72
2022-11-21T04:16:38.810Z,97852.03
2022-11-21T04:19:05.361Z,97851.66
2022-11-21T04:21:31.942Z,97857.59
2022-11-21T04:23:58.425Z,97861.38
2022-11-21T04:26:26.290Z,97859.69
2022-11-21T04:28:52.755Z,97865.63
2022-11-21T04:31:19.337Z,97864.34
2022-11-21T04:33:45.860Z,97865.94
2022-11-21T04:36:12.366Z,97872.59
2022-11-21T04:38:38.916Z,97876.06
2022-11-21T04:41:05.567Z,97883.59
2022-11-21T04:43:33.433Z,97875.38
2022-11-21T04:46:00.003Z,97879.66
2022-11-21T04:48:26.535Z,97879.66
2022-11-21T04:50:53.087Z,97879.16
2022-11-21T04:53:19.746Z,97882.91
2022-11-21T04:55:46.253Z,97887.75
2022-11-21T04:58:12.935Z,97889.66
2022-11-21T05:00:40.850Z,97892.31
2022-11-21T05:03:07.609Z,97892.63
2022-11-21T05:05:34.292Z,97894.22
2022-11-21T05:08:00.862Z,97884.28
2022-11-21T05:10:27.725Z,97883.19
2022-11-21T05:12:58.107Z,97881.03
2022-11-21T05:15:25.147Z,97870.59
2022-11-21T05:17:53.181Z,97872.19
2022-11-21T05:20:19.812Z,97876.47
2022-11-21T05:22:51.342Z,97873.50
2022-11-21T05:25:18.207Z,97884.69
2022-11-21T05:27:44.715Z,97891.13
2022-11-21T05:30:12.843Z,97892.44
2022-11-21T05:32:39.369Z,97897.78
2022-11-21T05:35:07.932Z,97900.75
2022-11-21T05:37:34.517Z,97890.03
2022-11-21T05:40:01.036Z,97898.88
2022-11-21T05:42:27.576Z,97897.78
2022-11-21T05:44:54.225Z,97903.94
2022-11-21T05:47:20.765Z,97894.31
2022-11-21T05:49:47.427Z,97895.63
2022-11-21T05:52:15.452Z,97887.88
2022-11-21T05:54:45.953Z,97898.28
2022-11-21T05:57:12.740Z,97910.38
2022-11-21T05:59:39.294Z,97912.78
2022-11-21T06:02:05.808Z,97906.13
2022-11-21T06:04:32.382Z,97916.03
2022-11-21T06:06:59.075Z,97926.75
2022-11-21T06:09:27.145Z,97922.00
2022-11-21T06:11:53.696Z,97925.19
2022-11-21T06:14:20.373Z,97924.69
2022-11-21T06:16:47.069Z,97921.22
2022-11-21T06:19:13.712Z,97926.06
2022-11-21T06:21:40.374Z,97927.25
2022-11-21T06:24:08.004Z,97927.84
2022-11-21T06:26:36.032Z,97930.81
2022-11-21T06:29:02.715Z,97932.50
2022-11-21T06:31:29.307Z,97938.44
2022-11-21T06:33:58.099Z,97945.97
2022-11-21T06:36:25.353Z,97931.59
2022-11-21T06:38:53.893Z,97929.50
2022-11-21T06:41:21.698Z,97923.56
2022-11-21T06:43:49.601Z,97912.63
2022-11-21T06:46:16.612Z,97921.44
2022-11-21T06:48:43.772Z,97925.22
2022-11-21T06:51:16.176Z,97929.28
2022-11-21T06:53:42.986Z,97932.47
2022-11-21T06:56:09.859Z,97926.31
2022-11-21T06:58:36.471Z,97927.38
2022-11-21T07:01:06.829Z,97925.50
2022-11-21T07:03:33.557Z,97918.50
2022-11-21T07:06:00.732Z,97920.88
2022-11-21T07:08:27.839Z,97934.47
2022-11-21T07:11:22.919Z,97928.53
2022-11-21T07:13:42.847Z,97922.88
2022-11-21T07:16:12.408Z,97925.75
2022-11-21T07:18:38.947Z,97924.06
2022-11-21T07:21:06.931Z,97918.94
2022-11-21T07:23:34.356Z,97935.00
2022-11-21T07:26:01.479Z,97929.31
2022-11-21T07:28:28.229Z,97926.88
2022-11-21T07:30:56.311Z,97926.28
2022-11-21T07:33:24.319Z,97921.41
2022-11-21T07:35:51.273Z,97935.00
2022-11-21T07:38:18.344Z,97932.56
2022-11-21T07:40:44.917Z,97933.03
2022-11-21T07:43:11.831Z,97935.41
2022-11-21T07:45:38.412Z,97933.25
2022-11-21T07:48:07.244Z,97943.16
2022-11-21T07:50:35.453Z,97940.41
2022-11-21T07:53:03.821Z,97937.91
2022-11-21T07:55:30.441Z,97931.47
2022-11-21T07:58:01.079Z,97934.81
2022-11-21T08:00:29.246Z,97935.03
2022-11-21T08:02:56.013Z,97938.22
2022-11-21T08:05:23.042Z,97936.84
2022-11-21T08:07:51.108Z,97934.03
2022-11-21T08:10:18.234Z,97935.81
2022-11-21T08:12:45.374Z,97933.63
2022-11-21T08:15:12.560Z,97940.28
2022-11-21T08:17:39.455Z,97935.31
2022-11-21T08:20:07.351Z,97929.38
2022-11-21T08:22:38.490Z,97932.72
2022-11-21T08:25:08.943Z,97930.25
2022-11-21T08:27:36.418Z,97936.41
2022-11-21T08:30:03.763Z,97947.66
2022-11-21T08:32:31.013Z,97935.19
2022-11-21T08:34:57.553Z,97936.78
2022-11-21T08:37:24.086Z,97935.59
2022-11-21T08:39:50.593Z,97944.44
2022-11-21T08:42:18.467Z,97945.22
2022-11-21T08:44:45.052Z,97947.53
2022-11-21T08:47:11.571Z,97952.69
2022-11-21T08:49:38.081Z,97945.44
2022-11-21T08:52:04.802Z,97939.56
2022-11-21T08:54:31.482Z,97947.53
2022-11-21T08:56:58.066Z,97945.81
2022-11-21T08:59:26.008Z,97949.00
2022-11-21T09:01:52.598Z,97947.59
2022-11-21T09:04:19.206Z,97938.44
2022-11-21T09:06:45.773Z,97934.56
2022-11-21T09:09:12.596Z,97938.53
2022-11-21T09:11:39.171Z,97953.03
2022-11-21T09:14:05.740Z,97947.84
2022-11-21T09:16:33.583Z,97946.75
2022-11-21T09:19:00.274Z,97951.81
2022-11-21T09:21:26.845Z,97947.25
2022-11-21T09:23:53.380Z,97955.81
2022-11-21T09:26:19.959Z,97952.03
2022-11-21T09:28:47.004Z,97944.84
2022-11-21T09:31:13.729Z,97949.56
2022-11-21T09:33:41.613Z,97948.06
2022-11-21T09:36:08.346Z,97943.88
2022-11-21T09:38:35.032Z,97946.50
2022-11-21T09:41:13.877Z,97949.06
2022-11-21T09:43:49.650Z,97953.22
2022-11-21T09:46:21.496Z,97952.78
2022-11-21T09:48:54.391Z,97951.22
2022-11-21T09:51:22.402Z,97950.06
2022-11-21T09:53:57.484Z,97938.31
2022-11-21T09:56:25.289Z,97936.28
2022-11-21T09:59:03.656Z,97933.81
2022-11-21T10:01:31.005Z,97928.16
2022-11-21T10:04:02.154Z,97931.03
2022-11-21T10:06:31.022Z,97930.56
2022-11-21T10:09:07.672Z,97935.81
2022-11-21T10:11:48.067Z,97930.41
2022-11-21T10:14:24.211Z,97932.34
2022-11-21T10:17:00.551Z,97912.09
2022-11-21T10:19:43.530Z,97902.91
2022-11-21T10:22:26.029Z,97896.09
2022-11-21T10:24:56.092Z,97902.91
2022-11-21T10:27:31.686Z,97902.09
2022-11-21T10:30:01.944Z,97900.38
2022-11-21T10:32:32.941Z,97904.00
2022-11-21T10:35:12.500Z,97905.59
2022-11-21T10:37:42.176Z,97908.91
2022-11-21T10:40:18.855Z,97908.59
2022-11-21T10:42:53.319Z,97910.81
2022-11-21T10:45:19.882Z,97905.72
2022-11-21T10:47:48.065Z,97910.47
2022-11-21T10:50:46.815Z,97902.25
2022-11-21T10:53:17.914Z,97902.41
2022-11-21T10:55:58.959Z,97892.44
2022-11-21T10:58:34.982Z,97897.19
2022-11-21T11:01:01.677Z,97887.81
2022-11-21T11:03:30.153Z,97891.94
2022-11-21T11:05:58.099Z,97891.13
2022-11-21T11:08:24.646Z,97884.13
2022-11-21T11:11:03.563Z,97883.97
2022-11-21T11:13:49.104Z,97876.03
2022-11-21T11:16:18.253Z,97883.16
2022-11-21T11:18:48.731Z,97860.81
2022-11-21T11:21:19.278Z,97859.91
2022-11-21T11:23:47.000Z,97855.00
2022-11-21T11:26:23.891Z,97841.84
2022-11-21T11:28:50.716Z,97840.56
2022-11-21T11:31:17.453Z,97831.06
2022-11-21T11:33:53.283Z,97829.19
2022-11-21T11:36:36.607Z,97829.00
2022-11-21T11:39:11.264Z,97815.50
2022-11-21T11:42:22.333Z,97804.38
2022-11-21T11:45:02.288Z,97802.66
2022-11-21T11:47:34.492Z,97802.44
2022-11-21T11:50:09.317Z,97799.41
2022-11-21T11:52:43.195Z,97799.34
2022-11-21T11:55:19.899Z,97803.28
2022-11-21T11:57:48.388Z,97785.47
2022-11-21T12:00:28.450Z,97783.63
2022-11-21T12:03:01.361Z,97783.78
2022-11-21T12:05:30.792Z,97786.53
2022-11-21T12:11:07.119Z,97788.91
2022-11-21T12:13:36.430Z,97785.22
2022-11-21T12:16:13.050Z,97798.00
2022-11-21T12:18:49.103Z,97783.84
2022-11-21T12:21:16.893Z,97777.00
2022-11-21T12:23:48.442Z,97773.50
2022-11-21T12:26:27.715Z,97765.88
2022-11-21T12:29:17.046Z,97758.44
2022-11-21T12:32:04.662Z,97753.84
2022-11-21T12:34:47.160Z,97747.03
2022-11-21T12:37:28.849Z,97746.56
2022-11-21T12:40:15.783Z,97741.59
2022-11-21T12:42:55.434Z,97737.28
2022-11-21T12:45:27.429Z,97732.16
2022-11-21T12:48:17.419Z,97736.25
2022-11-21T12:50:52.006Z,97735.00
2022-11-21T12:53:25.077Z,97721.25
2022-11-21T12:56:00.225Z,97720.84
2022-11-21T12:58:32.152Z,97721.44
2022-11-21T13:01:21.045Z,97715.50
2022-11-21T13:03:54.809Z,97710.13
2022-11-21T13:06:24.438Z,97703.44
2022-11-21T13:08:53.059Z,97698.09
2022-11-21T13:11:37.826Z,97705.31
2022-11-21T13:14:11.603Z,97697.34
2022-11-21T13:16:41.119Z,97691.94
2022-11-21T13:19:21.217Z,97694.75
2022-11-21T13:21:49.273Z,97697.56
2022-11-21T13:24:51.225Z,97699.13
2022-11-21T13:27:38.837Z,97694.72
2022-11-21T13:30:24.618Z,97690.03
2022-11-21T13:32:52.758Z,97697.09
2022-11-21T13:36:05.135Z,97687.75
2022-11-21T13:38:32.769Z,97687.81
2022-11-21T13:40:59.320Z,97683.63
2022-11-21T13:43:35.504Z,97685.75
2022-11-21T13:46:02.440Z,97688.00
2022-11-21T13:49:01.434Z,97688.00
2022-11-21T13:51:46.760Z,97692.59
2022-11-21T13:54:47.870Z,97684.16
2022-11-21T13:57:30.253Z,97671.47
2022-11-21T14:00:19.655Z,97681.81
2022-11-21T14:03:33.733Z,97670.09
2022-11-21T14:06:19.673Z,97671.88
2022-11-21T14:09:05.281Z,97660.38
2022-11-21T14:11:36.694Z,97667.19
2022-11-21T14:14:03.491Z,97658.53
2022-11-21T14:16:36.807Z,97664.56
2022-11-21T14:19:04.923Z,97654.78
2022-11-21T14:21:33.885Z,97651.94
2022-11-21T14:24:04.823Z,97652.63
2022-11-21T14:26:37.767Z,97645.50
2022-11-21T14:29:19.400Z,97644.56
2022-11-21T14:31:48.501Z,97640.50
2022-11-21T14:34:24.996Z,97638.59
2022-11-21T14:36:51.927Z,97638.13
2022-11-21T14:39:38.067Z,97634.53
2022-11-21T14:42:12.386Z,97630.31
2022-11-21T14:44:39.121Z,97622.53
2022-11-21T14:47:17.161Z,97610.81
2022-11-21T14:49:50.080Z,97611.50
2022-11-21T14:52:19.630Z,97610.38
2022-11-21T14:55:22.280Z,97604.53
2022-11-21T14:57:40.505Z,97599.47
2022-11-21T15:00:07.920Z,97596.19
2022-11-21T15:02:35.969Z,97597.28
2022-11-21T15:05:04.993Z,97595.56
2022-11-21T15:07:39.048Z,97586.56
2022-11-21T15:12:57.437Z,97584.25
2022-11-21T15:15:28.218Z,97582.41
2022-11-21T15:18:24.382Z,97581.00
2022-11-21T15:20:49.057Z,97580.25
2022-11-21T15:23:26.339Z,97578.56
2022-11-21T15:25:56.618Z,97570.22
2022-11-21T15:28:26.639Z,97571.81
2022-11-21T15:31:15.501Z,97577.72
2022-11-21T15:34:33.709Z,97563.31
2022-11-21T15:37:01.693Z,97564.44
2022-11-21T15:39:28.306Z,97568.56
2022-11-21T15:41:54.849Z,97560.00
2022-11-21T15:44:22.801Z,97562.69
2022-11-21T15:46:52.996Z,97563.16
2022-11-21T15:49:36.148Z,97566.78
2022-11-21T15:52:10.133Z,97562.91
2022-11-21T15:54:37.116Z,97562.25
2022-11-21T15:57:03.754Z,97562.06
2022-11-21T15:59:30.748Z,97564.88
2022-11-21T16:01:57.607Z,97563.00
2022-11-21T16:04:26.303Z,97552.53
2022-11-21T16:06:53.221Z,97555.56
2022-11-21T16:09:19.813Z,97545.78
2022-11-21T16:11:47.175Z,97550.03
2022-11-21T16:14:16.236Z,97539.28
2022-11-21T16:16:44.455Z,97525.81
2022-11-21T16:19:11.871Z,97515.22
2022-11-21T16:21:40.315Z,97503.84
2022-11-21T16:24:07.220Z,97496.47
2022-11-21T16:26:34.125Z,97483.25
2022-11-21T16:29:01.566Z,97491.53
2022-11-21T16:31:29.657Z,97482.91
2022-11-21T16:33:56.640Z,97477.09
2022-11-21T16:36:24.355Z,97474.63
2022-11-21T16:38:52.877Z,97469.13
2022-11-21T16:41:21.365Z,97463.31
2022-11-21T16:43:49.868Z,97455.91
2022-11-21T16:46:17.413Z,97453.72
2022-11-21T16:48:44.433Z,97457.38
2022-11-21T16:51:12.389Z,97446.28
2022-11-21T16:53:39.624Z,97440.94
2022-11-21T16:56:08.390Z,97434.47
2022-11-21T16:58:36.257Z,97431.00
2022-11-21T17:01:10.303Z,97430.41
2022-11-21T17:03:37.380Z,97424.72
2022-11-21T17:06:04.006Z,97426.28
2022-11-21T17:08:30.712Z,97427.41
2022-11-21T17:10:59.359Z,97417.78
2022-11-21T17:13:27.225Z,97417.78
2022-11-21T17:15:53.752Z,97414.94
2022-11-21T17:18:20.316Z,97417.13
2022-11-21T17:20:46.799Z,97408.78
2022-11-21T17:23:13.335Z,97401.50
2022-11-21T17:25:39.939Z,97399.94
2022-11-21T17:28:06.599Z,97398.03
2022-11-21T17:30:34.462Z,97392.97
2022-11-21T17:33:01.043Z,97390.28
2022-11-21T17:35:27.601Z,97378.94
2022-11-21T17:37:54.091Z,97375.44
2022-11-21T17:40:20.750Z,97367.22
2022-11-21T17:42:47.269Z,97367.53
2022-11-21T17:45:13.867Z,97357.13
2022-11-21T17:47:41.768Z,97350.03
2022-11-21T17:50:08.468Z,97352.84
2022-11-21T17:52:35.419Z,97343.38
2022-11-21T17:55:01.957Z,97337.84
2022-11-21T17:57:28.514Z,97337.69
2022-11-21T17:59:55.079Z,97335.63
2022-11-21T18:02:21.955Z,97335.31
2022-11-21T18:04:49.907Z,97329.97
2022-11-21T18:07:16.446Z,97328.38
2022-11-21T18:09:42.994Z,97317.03
2022-11-21T18:12:09.525Z,97316.38
2022-11-21T18:14:36.187Z,97326.63
2022-11-21T18:17:02.757Z,97325.38
2022-11-21T18:19:29.339Z,97320.00
2022-11-21T18:21:57.230Z,97314.47
2022-11-21T18:24:23.809Z,97317.31
2022-11-21T18:26:50.524Z,97313.34
2022-11-21T18:32:03.812Z,97305.63
2022-11-21T18:34:30.379Z,97295.38
2022-11-21T18:36:58.278Z,97294.28
2022-11-21T18:39:24.884Z,97287.66
2022-11-21T18:41:51.407Z,97285.97
2022-11-21T18:44:21.960Z,97300.78
2022-11-21T18:46:49.423Z,97292.44
2022-11-21T18:49:15.944Z,97289.13
2022-11-21T18:51:42.578Z,97297.16
2022-11-21T18:54:10.826Z,97290.22
2022-11-21T18:56:39.074Z,97281.53
2022-11-21T18:59:06.207Z,97274.16
2022-11-21T19:01:34.049Z,97271.47
2022-11-21T19:04:00.894Z,97264.84
2022-11-21T19:06:27.737Z,97259.16
2022-11-21T19:08:56.329Z,97262.81
2022-11-21T19:11:26.129Z,97252.22
2022-11-21T19:13:54.037Z,97261.06
2022-11-21T19:16:22.504Z,97275.44
2022-11-21T19:19:11.727Z,97276.22
2022-11-21T19:21:36.124Z,97279.69
2022-11-21T19:24:03.509Z,97281.25
2022-11-21T19:26:31.893Z,97272.09
2022-11-21T19:28:58.951Z,97265.63
2022-11-21T19:31:25.705Z,97280.31
2022-11-21T19:33:52.479Z,97282.69
2022-11-21T19:36:21.045Z,97281.41
2022-11-21T19:38:50.978Z,97281.41
2022-11-21T19:41:20.597Z,97284.09
2022-11-21T19:43:50.005Z,97281.88
2022-11-21T19:46:19.062Z,97284.56
2022-11-21T19:48:47.701Z,97299.09
2022-11-21T19:51:14.935Z,97303.34
2022-11-21T19:53:41.722Z,97300.81
2022-11-21T19:56:13.548Z,97295.44
2022-11-21T19:58:40.527Z,97299.09
2022-11-21T20:01:11.397Z,97296.56
2022-11-21T20:03:39.776Z,97290.72
2022-11-21T20:06:07.712Z,97284.38
2022-11-21T20:08:34.709Z,97287.41
2022-11-21T20:11:08.785Z,97279.16
2022-11-21T20:13:35.332Z,97277.44
2022-11-21T20:16:01.907Z,97275.34
2022-11-21T20:18:29.976Z,97258.47
2022-11-21T20:20:56.604Z,97258.16
2022-11-21T20:23:23.275Z,97255.16
2022-11-21T20:25:50.851Z,97253.25
2022-11-21T20:28:17.824Z,97241.72
2022-11-21T20:30:44.460Z,97236.81
2022-11-21T20:33:11.647Z,97238.25
2022-11-21T20:35:40.050Z,97238.56
2022-11-21T20:38:06.635Z,97233.34
2022-11-21T20:40:33.257Z,97235.06
2022-11-21T20:43:00.095Z,97231.28
2022-11-21T20:48:18.729Z,97227.47
2022-11-21T20:51:59.589Z,97226.38
2022-11-21T20:53:51.925Z,97230.16
2022-11-21T20:56:19.925Z,97229.06
2022-11-21T20:58:47.360Z,97228.28
2022-11-21T21:01:15.953Z,97229.06
2022-11-21T21:03:43.034Z,97222.25
2022-11-21T21:06:12.206Z,97222.25
2022-11-21T21:08:39.660Z,97218.47
2022-11-21T21:11:20.738Z,97217.03
2022-11-21T21:13:54.708Z,97216.41
2022-11-21T21:16:24.672Z,97218.41
2022-11-21T21:18:52.665Z,97216.53
2022-11-21T21:21:22.668Z,97220.78
2022-11-21T21:23:55.302Z,97215.25
2022-11-21T21:26:24.486Z,97221.06
2022-11-21T21:28:51.862Z,97215.06
2022-11-21T21:31:20.848Z,97202.09
2022-11-21T21:33:47.383Z,97197.53
2022-11-21T21:36:16.331Z,97200.69
2022-11-21T21:38:44.484Z,97199.53
2022-11-21T21:41:13.811Z,97197.66
2022-11-21T21:43:41.407Z,97194.31
2022-11-21T21:46:10.522Z,97198.13
2022-11-21T21:48:37.371Z,97189.72
2022-11-21T21:51:04.853Z,97185.16
2022-11-21T21:53:32.133Z,97185.94
2022-11-21T21:56:00.511Z,97180.88
2022-11-21T21:58:27.848Z,97182.16
2022-11-21T22:00:54.513Z,97173.78
2022-11-21T22:03:21.027Z,97156.53
2022-11-21T22:05:47.601Z,97152.06
2022-11-21T22:08:14.122Z,97159.19
2022-11-21T22:10:40.694Z,97162.19
2022-11-21T22:13:08.807Z,97153.66
2022-11-21T22:15:35.398Z,97159.66
2022-11-21T22:18:02.448Z,97157.97
2022-11-21T22:20:29.037Z,97147.53
2022-11-21T22:23:00.211Z,97159.72
2022-11-21T22:25:27.260Z,97148.50
2022-11-21T22:27:53.785Z,97153.56
2022-11-21T22:30:21.769Z,97152.34
2022-11-21T22:32:48.306Z,97161.63
2022-11-21T22:35:14.872Z,97154.03
2022-11-21T22:37:41.377Z,97148.00
2022-11-21T22:40:08.842Z,97154.50
2022-11-21T22:42:35.367Z,97156.06
2022-11-21T22:45:02.172Z,97149.91
2022-11-21T22:47:30.089Z,97144.53
2022-11-21T22:49:56.581Z,97132.69
2022-11-21T22:52:23.362Z,97133.47
2022-11-21T22:54:49.952Z,97133.91
2022-11-21T22:57:16.498Z,97135.31
2022-11-21T22:59:43.076Z,97141.28
2022-11-21T23:02:09.868Z,97127.97
2022-11-21T23:04:37.799Z,97126.41
2022-11-21T23:07:04.448Z,97130.34
2022-11-21T23:09:31.533Z,97126.53
2022-11-21T23:11:58.380Z,97120.50
2022-11-21T23:14:24.890Z,97121.28
2022-11-21T23:16:51.382Z,97116.84
2022-11-21T23:19:18.025Z,97115.84
2022-11-21T23:21:46.072Z,97116.78
2022-11-21T23:24:12.641Z,97111.97
2022-11-21T23:26:39.351Z,97119.06
2022-11-21T23:29:08.855Z,97104.94
2022-11-21T23:31:35.710Z,97105.09
2022-11-21T23:34:02.475Z,97096.34
2022-11-21T23:36:28.998Z,97093.00
2022-11-21T23:38:57.093Z,97108.47
2022-11-21T23:41:23.601Z,97088.22
2022-11-21T23:43:50.135Z,97088.00
2022-11-21T23:46:16.821Z,97087.78
2022-11-21T23:48:43.364Z,97085.22
2022-11-21T23:51:10.655Z,97082.22
2022-11-21T23:53:37.163Z,97085.78
2022-11-21T23:56:05.846Z,97080.41
2022-11-21T23:58:35.590Z,97078.50
